createdAt,value
2018-01-29T00:01:58.274Z,6.50
2018-01-29T00:04:25.837Z,6.50
2018-01-29T00:06:53.390Z,6.50
2018-01-29T00:09:21.749Z,6.50
2018-01-29T00:11:49.210Z,6.50
2018-01-29T00:14:17.534Z,6.60
2018-01-29T00:16:45.560Z,6.50
2018-01-29T00:19:13.210Z,6.50
2018-01-29T00:21:40.808Z,6.50
2018-01-29T00:24:08.398Z,6.50
2018-01-29T00:26:36.135Z,6.50
2018-01-29T00:29:03.766Z,6.50
2018-01-29T00:31:31.299Z,6.60
2018-01-29T00:33:58.864Z,6.60
2018-01-29T00:36:26.595Z,6.50
2018-01-29T00:38:54.139Z,6.60
2018-01-29T00:41:21.647Z,6.50
2018-01-29T00:43:50.039Z,6.50
2018-01-29T00:46:18.377Z,6.40
2018-01-29T00:48:46.201Z,6.40
2018-01-29T00:51:13.781Z,6.50
2018-01-29T00:53:41.338Z,6.50
2018-01-29T00:56:09.209Z,6.50
2018-01-29T00:58:36.853Z,6.40
2018-01-29T01:01:04.465Z,6.40
2018-01-29T01:03:32.083Z,6.40
2018-01-29T01:06:00.484Z,6.40
2018-01-29T01:08:28.154Z,6.40
2018-01-29T01:10:55.688Z,6.30
2018-01-29T01:13:23.340Z,6.20
2018-01-29T01:15:52.690Z,6.20
2018-01-29T01:18:20.650Z,6.20
2018-01-29T01:20:48.238Z,6.20
2018-01-29T01:23:15.831Z,6.20
2018-01-29T01:25:43.950Z,6.10
2018-01-29T01:28:11.531Z,6.20
2018-01-29T01:30:39.124Z,6.20
2018-01-29T01:33:06.693Z,6.30
2018-01-29T01:38:08.185Z,6.30
2018-01-29T01:40:35.711Z,6.30
2018-01-29T01:43:03.261Z,6.40
2018-01-29T01:45:30.958Z,6.40
2018-01-29T01:47:58.557Z,6.40
2018-01-29T01:50:26.146Z,6.30
2018-01-29T01:52:53.695Z,6.20
2018-01-29T01:55:21.366Z,6.10
2018-01-29T01:57:48.916Z,6.20
2018-01-29T02:00:17.269Z,6.30
2018-01-29T02:02:44.808Z,6.30
2018-01-29T02:05:12.555Z,6.40
2018-01-29T02:07:40.133Z,6.30
2018-01-29T02:10:07.707Z,6.30
2018-01-29T02:12:35.262Z,6.40
2018-01-29T02:15:02.846Z,6.30
2018-01-29T02:17:30.464Z,6.30
2018-01-29T02:19:57.948Z,6.30
2018-01-29T02:22:26.599Z,6.10
2018-01-29T02:24:54.134Z,6.10
2018-01-29T02:27:21.760Z,6.00
2018-01-29T02:29:49.482Z,6.00
2018-01-29T02:32:17.080Z,5.90
2018-01-29T02:34:44.857Z,5.90
2018-01-29T02:37:12.458Z,5.90
2018-01-29T02:39:40.267Z,5.90
2018-01-29T02:42:07.812Z,5.90
2018-01-29T02:44:35.399Z,6.00
2018-01-29T02:47:03.798Z,6.00
2018-01-29T02:49:31.378Z,6.00
2018-01-29T02:51:58.907Z,6.10
2018-01-29T02:54:26.461Z,6.10
2018-01-29T02:56:54.274Z,6.10
2018-01-29T02:59:21.959Z,6.00
2018-01-29T03:01:50.010Z,5.90
2018-01-29T03:04:17.552Z,6.00
2018-01-29T03:06:45.154Z,5.90
2018-01-29T03:09:13.346Z,5.80
2018-01-29T03:11:40.866Z,5.70
2018-01-29T03:14:08.527Z,5.70
2018-01-29T03:16:36.191Z,5.70
2018-01-29T03:19:04.039Z,5.70
2018-01-29T03:21:31.597Z,5.70
2018-01-29T03:23:59.956Z,5.80
2018-01-29T03:26:28.500Z,5.80
2018-01-29T03:28:56.161Z,5.80
2018-01-29T03:31:24.026Z,5.80
2018-01-29T03:33:51.668Z,5.70
2018-01-29T03:36:19.258Z,5.50
2018-01-29T03:38:46.793Z,5.40
2018-01-29T03:41:14.415Z,5.40
2018-01-29T03:43:42.020Z,5.40
2018-01-29T03:46:10.280Z,5.50
2018-01-29T03:48:37.925Z,5.50
2018-01-29T03:51:05.720Z,5.60
2018-01-29T03:53:33.302Z,5.60
2018-01-29T03:56:00.843Z,5.60
2018-01-29T03:58:28.502Z,5.50
2018-01-29T04:00:56.154Z,5.50
2018-01-29T04:03:23.726Z,5.40
2018-01-29T04:05:51.416Z,5.40
2018-01-29T04:08:18.880Z,5.40
2018-01-29T04:10:46.593Z,5.50
2018-01-29T04:13:14.178Z,5.50
2018-01-29T04:15:41.798Z,5.60
2018-01-29T04:18:09.437Z,5.60
2018-01-29T04:20:37.895Z,5.60
2018-01-29T04:23:05.540Z,5.60
2018-01-29T04:25:33.168Z,5.60
2018-01-29T04:28:00.791Z,5.50
2018-01-29T04:30:28.378Z,5.40
2018-01-29T04:32:56.732Z,5.30
2018-01-29T04:35:24.322Z,5.30
2018-01-29T04:37:53.277Z,5.40
2018-01-29T04:40:20.840Z,5.40
2018-01-29T04:42:49.358Z,5.40
2018-01-29T04:45:17.779Z,5.20
2018-01-29T04:47:45.503Z,5.20
2018-01-29T04:50:13.452Z,5.10
2018-01-29T04:52:41.109Z,5.00
2018-01-29T04:55:08.655Z,5.10
2018-01-29T04:57:36.231Z,5.10
2018-01-29T05:00:03.914Z,5.20
2018-01-29T05:02:31.535Z,5.20
2018-01-29T05:04:59.088Z,5.10
2018-01-29T05:07:26.626Z,5.10
2018-01-29T05:09:54.454Z,5.10
2018-01-29T05:12:22.835Z,5.30
2018-01-29T05:14:50.430Z,5.20
2018-01-29T05:17:18.040Z,5.30
2018-01-29T05:19:46.389Z,5.30
2018-01-29T05:22:13.976Z,5.30
2018-01-29T05:24:42.311Z,5.20
2018-01-29T05:27:09.822Z,5.20
2018-01-29T05:29:37.297Z,5.10
2018-01-29T05:32:04.972Z,5.10
2018-01-29T05:34:32.598Z,5.20
2018-01-29T05:37:02.073Z,5.20
2018-01-29T05:39:29.746Z,5.20
2018-01-29T05:41:57.318Z,5.30
2018-01-29T05:44:25.154Z,5.30
2018-01-29T05:46:53.320Z,5.30
2018-01-29T05:49:20.883Z,5.40
2018-01-29T05:51:48.494Z,5.40
2018-01-29T05:54:16.008Z,5.50
2018-01-29T05:56:43.676Z,5.50
2018-01-29T05:59:11.629Z,5.40
2018-01-29T06:01:39.055Z,5.40
2018-01-29T06:04:06.924Z,5.30
2018-01-29T06:06:34.563Z,5.40
2018-01-29T06:09:02.985Z,5.50
2018-01-29T06:11:30.529Z,5.40
2018-01-29T06:13:58.155Z,5.40
2018-01-29T06:16:25.755Z,5.40
2018-01-29T06:18:53.404Z,5.30
2018-01-29T06:21:21.013Z,5.30
2018-01-29T06:23:48.733Z,5.30
2018-01-29T06:26:16.826Z,5.40
2018-01-29T06:28:44.894Z,5.40
2018-01-29T06:31:12.471Z,5.40
2018-01-29T06:33:40.078Z,5.40
2018-01-29T06:36:08.402Z,5.50
2018-01-29T06:38:36.098Z,5.50
2018-01-29T06:41:03.665Z,5.50
2018-01-29T06:43:32.106Z,5.50
2018-01-29T06:46:00.173Z,5.50
2018-01-29T06:48:27.706Z,5.50
2018-01-29T06:50:55.373Z,5.50
2018-01-29T06:53:22.880Z,5.60
2018-01-29T06:55:50.589Z,5.50
2018-01-29T06:58:18.470Z,5.30
2018-01-29T07:00:46.163Z,5.30
2018-01-29T07:03:13.873Z,5.30
2018-01-29T07:05:42.399Z,5.40
2018-01-29T07:08:09.990Z,5.40
2018-01-29T07:10:37.678Z,5.50
2018-01-29T07:13:06.090Z,5.40
2018-01-29T07:15:34.798Z,5.40
2018-01-29T07:18:02.429Z,5.40
2018-01-29T07:20:30.154Z,5.50
2018-01-29T07:22:58.244Z,5.60
2018-01-29T07:25:25.843Z,5.60
2018-01-29T07:27:53.535Z,5.50
2018-01-29T07:30:21.967Z,5.60
2018-01-29T07:32:49.757Z,5.60
2018-01-29T07:35:17.325Z,5.50
2018-01-29T07:37:44.937Z,5.60
2018-01-29T07:40:12.786Z,5.70
2018-01-29T07:42:40.399Z,5.80
2018-01-29T07:45:08.016Z,5.90
2018-01-29T07:47:35.603Z,5.90
2018-01-29T07:50:03.670Z,5.90
2018-01-29T07:52:32.109Z,5.90
2018-01-29T07:55:00.032Z,6.00
2018-01-29T07:57:27.767Z,5.90
2018-01-29T07:59:55.377Z,5.90
2018-01-29T08:02:23.018Z,6.00
2018-01-29T08:04:50.569Z,6.10
2018-01-29T08:07:18.132Z,6.10
2018-01-29T08:09:45.701Z,6.20
2018-01-29T08:12:13.257Z,6.20
2018-01-29T08:14:40.825Z,6.10
2018-01-29T08:17:09.278Z,6.10
2018-01-29T08:19:36.837Z,6.10
2018-01-29T08:22:04.455Z,6.00
2018-01-29T08:24:32.008Z,6.00
2018-01-29T08:26:59.535Z,5.90
2018-01-29T08:29:27.202Z,5.90
2018-01-29T08:31:54.715Z,5.90
2018-01-29T08:34:22.303Z,5.80
2018-01-29T08:36:49.972Z,5.70
2018-01-29T08:39:17.595Z,5.70
2018-01-29T08:41:46.019Z,5.80
2018-01-29T08:44:13.654Z,5.80
2018-01-29T08:46:41.246Z,6.00
2018-01-29T08:49:08.854Z,6.00
2018-01-29T08:51:37.208Z,6.10
2018-01-29T08:54:04.771Z,6.00
2018-01-29T08:56:32.621Z,6.10
2018-01-29T08:59:00.196Z,6.30
2018-01-29T09:01:27.740Z,6.40
2018-01-29T09:03:55.335Z,6.40
2018-01-29T09:06:22.938Z,6.40
2018-01-29T09:08:50.554Z,6.40
2018-01-29T09:11:18.185Z,6.40
2018-01-29T09:13:45.739Z,6.40
2018-01-29T09:16:13.331Z,6.40
2018-01-29T09:18:41.178Z,6.40
2018-01-29T09:21:08.789Z,6.30
2018-01-29T09:23:36.359Z,6.30
2018-01-29T09:26:04.689Z,6.20
2018-01-29T09:28:32.440Z,6.20
2018-01-29T09:31:00.001Z,6.30
2018-01-29T09:33:27.603Z,6.20
2018-01-29T09:35:55.918Z,6.40
2018-01-29T09:38:23.503Z,6.40
2018-01-29T09:40:51.223Z,6.50
2018-01-29T09:43:18.819Z,6.50
2018-01-29T09:45:46.414Z,6.50
2018-01-29T09:48:14.780Z,6.40
2018-01-29T09:50:43.094Z,6.30
2018-01-29T09:53:11.757Z,6.30
2018-01-29T09:55:39.318Z,6.30
2018-01-29T09:58:07.480Z,6.40
2018-01-29T10:00:35.155Z,6.50
2018-01-29T10:03:03.482Z,6.60
2018-01-29T10:05:31.193Z,6.60
2018-01-29T10:07:58.821Z,6.60
2018-01-29T10:10:26.434Z,6.70
2018-01-29T10:12:54.007Z,6.60
2018-01-29T10:15:21.567Z,6.50
2018-01-29T10:17:49.876Z,6.70
2018-01-29T10:20:17.365Z,6.70
2018-01-29T10:22:44.961Z,6.70
2018-01-29T10:25:12.584Z,6.80
2018-01-29T10:27:40.706Z,6.80
2018-01-29T10:30:08.296Z,6.90
2018-01-29T10:32:35.877Z,6.80
2018-01-29T10:35:03.355Z,6.70
2018-01-29T10:37:30.965Z,6.70
2018-01-29T10:39:58.449Z,6.80
2018-01-29T10:42:26.179Z,6.80
2018-01-29T10:44:53.846Z,6.80
2018-01-29T10:47:21.515Z,6.90
2018-01-29T10:49:49.111Z,7.00
2018-01-29T10:52:16.884Z,7.00
2018-01-29T10:54:45.129Z,7.00
2018-01-29T10:57:12.706Z,7.00
2018-01-29T10:59:40.424Z,7.00
2018-01-29T11:02:07.983Z,7.00
2018-01-29T11:04:35.559Z,6.90
2018-01-29T11:07:03.115Z,7.00
2018-01-29T11:09:30.694Z,7.00
2018-01-29T11:11:58.277Z,7.00
2018-01-29T11:14:25.895Z,7.10
2018-01-29T11:16:55.001Z,7.10
2018-01-29T11:19:22.658Z,7.10
2018-01-29T11:21:50.370Z,7.20
2018-01-29T11:24:17.936Z,7.20
2018-01-29T11:26:46.329Z,7.10
2018-01-29T11:29:13.966Z,7.10
2018-01-29T11:31:41.581Z,7.10
2018-01-29T11:34:09.868Z,7.10
2018-01-29T11:36:37.397Z,7.10
2018-01-29T11:39:05.133Z,7.10
2018-01-29T11:41:33.354Z,7.20
2018-01-29T11:44:01.011Z,7.10
2018-01-29T11:46:28.675Z,7.20
2018-01-29T11:48:56.281Z,7.20
2018-01-29T11:51:23.863Z,7.20
2018-01-29T11:53:52.860Z,7.20
2018-01-29T11:56:20.644Z,7.20
2018-01-29T11:58:48.474Z,7.20
2018-01-29T12:01:16.838Z,7.20
2018-01-29T12:03:44.411Z,7.20
2018-01-29T12:06:12.805Z,7.30
2018-01-29T12:08:40.396Z,7.20
2018-01-29T12:11:07.969Z,7.30
2018-01-29T12:13:35.664Z,7.40
2018-01-29T12:16:04.846Z,7.30
2018-01-29T12:18:32.730Z,7.30
2018-01-29T12:21:00.333Z,7.40
2018-01-29T12:23:28.076Z,7.40
2018-01-29T12:25:55.625Z,7.50
2018-01-29T12:28:24.164Z,7.70
2018-01-29T12:30:51.904Z,7.70
2018-01-29T12:33:19.640Z,7.80
2018-01-29T12:35:47.994Z,7.90
2018-01-29T12:38:15.658Z,7.90
2018-01-29T12:40:44.046Z,7.90
2018-01-29T12:43:12.640Z,8.00
2018-01-29T12:45:40.185Z,8.00
2018-01-29T12:48:07.757Z,8.00
2018-01-29T12:50:36.302Z,8.10
2018-01-29T12:53:04.482Z,8.00
2018-01-29T12:55:32.056Z,8.00
2018-01-29T12:57:59.784Z,8.00
2018-01-29T13:00:27.365Z,8.00
2018-01-29T13:02:54.901Z,7.90
2018-01-29T13:05:22.398Z,7.90
2018-01-29T13:07:51.483Z,7.90
2018-01-29T13:10:19.048Z,8.00
2018-01-29T13:12:47.355Z,8.10
2018-01-29T13:15:15.667Z,8.30
2018-01-29T13:17:44.177Z,8.20
2018-01-29T13:20:11.805Z,8.20
2018-01-29T13:22:39.819Z,8.30
2018-01-29T13:25:07.500Z,8.20
2018-01-29T13:27:35.062Z,8.20
2018-01-29T13:30:02.706Z,8.10
2018-01-29T13:32:30.428Z,8.10
2018-01-29T13:34:58.032Z,8.00
2018-01-29T13:37:25.581Z,8.10
2018-01-29T13:39:54.061Z,8.20
2018-01-29T13:42:21.624Z,8.20
2018-01-29T13:44:49.178Z,8.20
2018-01-29T13:47:16.689Z,8.20
2018-01-29T13:49:44.976Z,8.20
2018-01-29T13:52:12.649Z,8.20
2018-01-29T13:54:40.234Z,8.10
2018-01-29T13:57:07.845Z,8.10
2018-01-29T13:59:35.304Z,8.10
2018-01-29T14:02:02.872Z,8.10
2018-01-29T14:04:30.416Z,8.10
2018-01-29T14:06:58.580Z,8.20
2018-01-29T14:09:26.881Z,8.50
2018-01-29T14:11:54.449Z,8.50
2018-01-29T14:14:22.127Z,8.60
2018-01-29T14:16:49.751Z,8.60
2018-01-29T14:19:17.592Z,8.60
2018-01-29T14:21:45.133Z,8.70
2018-01-29T14:24:12.708Z,8.70
2018-01-29T14:26:40.347Z,8.50
2018-01-29T14:29:07.934Z,8.60
2018-01-29T14:31:36.298Z,8.60
2018-01-29T14:34:03.853Z,8.60
2018-01-29T14:36:31.392Z,8.60
2018-01-29T14:38:59.073Z,8.70
2018-01-29T14:41:26.613Z,8.80
2018-01-29T14:43:54.296Z,8.80
2018-01-29T14:46:21.914Z,8.80
2018-01-29T14:48:49.527Z,8.80
2018-01-29T14:51:17.130Z,8.70
2018-01-29T14:53:44.680Z,8.80
2018-01-29T14:56:12.385Z,8.70
2018-01-29T14:58:39.993Z,8.70
2018-01-29T15:01:07.530Z,8.80
2018-01-29T15:03:35.099Z,8.90
2018-01-29T15:06:02.691Z,8.80
2018-01-29T15:08:30.251Z,8.80
2018-01-29T15:10:57.925Z,8.90
2018-01-29T15:13:25.546Z,8.90
2018-01-29T15:15:53.088Z,9.00
2018-01-29T15:18:20.726Z,9.00
2018-01-29T15:20:48.415Z,9.10
2018-01-29T15:23:16.374Z,9.00
2018-01-29T15:25:43.931Z,9.00
2018-01-29T15:28:11.528Z,9.00
2018-01-29T15:30:39.178Z,8.90
2018-01-29T15:33:06.806Z,8.90
2018-01-29T15:35:34.329Z,9.00
2018-01-29T15:38:01.883Z,9.00
2018-01-29T15:40:29.483Z,9.00
2018-01-29T15:42:57.510Z,9.00
2018-01-29T15:45:25.067Z,9.00
2018-01-29T15:47:52.697Z,9.00
2018-01-29T15:50:20.468Z,9.00
2018-01-29T15:52:48.096Z,9.00
2018-01-29T15:55:15.877Z,9.10
2018-01-29T15:57:43.464Z,9.10
2018-01-29T16:00:11.201Z,9.10
2018-01-29T16:02:38.783Z,9.10
2018-01-29T16:05:06.510Z,9.10
2018-01-29T16:07:34.103Z,9.10
2018-01-29T16:10:01.580Z,9.00
2018-01-29T16:12:29.098Z,8.90
2018-01-29T16:14:56.644Z,8.90
2018-01-29T16:17:24.231Z,8.90
2018-01-29T16:19:51.866Z,8.90
2018-01-29T16:22:19.758Z,8.90
2018-01-29T16:24:47.395Z,8.90
2018-01-29T16:27:14.984Z,8.90
2018-01-29T16:29:42.690Z,8.90
2018-01-29T16:32:11.065Z,9.00
2018-01-29T16:34:38.759Z,9.00
2018-01-29T16:37:06.320Z,9.00
2018-01-29T16:39:33.859Z,9.10
2018-01-29T16:42:01.491Z,9.00
2018-01-29T16:44:29.041Z,9.00
2018-01-29T16:46:56.945Z,9.10
2018-01-29T16:49:25.432Z,9.00
2018-01-29T16:51:53.030Z,9.00
2018-01-29T16:54:20.730Z,8.90
2018-01-29T16:56:48.330Z,8.90
2018-01-29T16:59:16.069Z,8.90
2018-01-29T17:01:43.661Z,8.90
2018-01-29T17:04:11.269Z,9.00
2018-01-29T17:06:39.531Z,9.00
2018-01-29T17:09:07.098Z,8.90
2018-01-29T17:11:34.707Z,9.00
2018-01-29T17:14:02.380Z,9.10
2018-01-29T17:16:29.899Z,9.10
2018-01-29T17:18:57.506Z,9.00
2018-01-29T17:21:25.061Z,9.10
2018-01-29T17:23:52.724Z,9.10
2018-01-29T17:26:20.241Z,9.10
2018-01-29T17:28:48.570Z,9.00
2018-01-29T17:31:16.144Z,9.00
2018-01-29T17:33:43.758Z,9.00
2018-01-29T17:36:11.244Z,9.00
2018-01-29T17:38:38.831Z,9.00
2018-01-29T17:41:06.428Z,9.00
2018-01-29T17:43:34.031Z,9.00
2018-01-29T17:46:01.687Z,9.00
2018-01-29T17:48:29.283Z,8.90
2018-01-29T17:50:56.883Z,8.90
2018-01-29T17:53:24.441Z,8.90
2018-01-29T17:55:52.934Z,8.90
2018-01-29T17:58:20.503Z,8.90
2018-01-29T18:00:48.096Z,8.90
2018-01-29T18:03:15.664Z,8.90
2018-01-29T18:05:43.162Z,8.90
2018-01-29T18:08:11.058Z,8.90
2018-01-29T18:10:38.627Z,8.90
2018-01-29T18:13:06.157Z,9.00
2018-01-29T18:15:33.696Z,9.00
2018-01-29T18:18:01.273Z,9.00
2018-01-29T18:20:28.858Z,9.10
2018-01-29T18:22:56.433Z,9.10
2018-01-29T18:25:24.061Z,9.10
2018-01-29T18:27:51.563Z,9.20
2018-01-29T18:30:19.139Z,9.20
2018-01-29T18:32:46.996Z,9.10
2018-01-29T18:35:14.840Z,9.10
2018-01-29T18:37:42.616Z,9.10
2018-01-29T18:40:11.847Z,9.10
2018-01-29T18:42:39.435Z,9.10
2018-01-29T18:45:07.081Z,9.10
2018-01-29T18:47:34.585Z,9.00
2018-01-29T18:50:02.806Z,8.90
2018-01-29T18:52:31.043Z,8.80
2018-01-29T18:54:58.583Z,8.80
2018-01-29T18:59:59.986Z,8.60
2018-01-29T19:02:28.667Z,8.70
2018-01-29T19:04:56.278Z,8.60
2018-01-29T19:07:23.855Z,8.70
2018-01-29T19:09:51.411Z,8.80
2018-01-29T19:12:18.966Z,8.80
2018-01-29T19:14:46.510Z,8.80
2018-01-29T19:17:14.044Z,8.80
2018-01-29T19:19:42.436Z,8.60
2018-01-29T19:22:10.129Z,8.60
2018-01-29T19:24:37.684Z,8.60
2018-01-29T19:27:05.198Z,8.50
2018-01-29T19:29:32.873Z,8.60
2018-01-29T19:32:00.508Z,8.70
2018-01-29T19:34:28.070Z,8.70
2018-01-29T19:36:56.482Z,8.70
2018-01-29T19:39:23.974Z,8.60
2018-01-29T19:41:51.533Z,8.50
2018-01-29T19:44:19.049Z,8.50
2018-01-29T19:46:46.558Z,8.40
2018-01-29T19:49:14.100Z,8.40
2018-01-29T19:51:41.719Z,8.30
2018-01-29T19:54:09.962Z,8.50
2018-01-29T19:56:37.538Z,8.50
2018-01-29T19:59:05.536Z,8.60
2018-01-29T20:01:33.843Z,8.70
2018-01-29T20:04:01.449Z,8.70
2018-01-29T20:06:28.999Z,8.50
2018-01-29T20:08:56.530Z,8.60
2018-01-29T20:11:23.997Z,8.60
2018-01-29T20:13:51.593Z,8.60
2018-01-29T20:16:19.245Z,8.60
2018-01-29T20:18:48.352Z,8.60
2018-01-29T20:21:16.671Z,8.70
2018-01-29T20:23:44.227Z,8.60
2018-01-29T20:26:11.740Z,8.70
2018-01-29T20:28:39.282Z,8.80
2018-01-29T20:31:08.500Z,8.60
2018-01-29T20:33:36.231Z,8.60
2018-01-29T20:36:03.794Z,8.60
2018-01-29T20:38:31.338Z,8.70
2018-01-29T20:40:59.006Z,8.70
2018-01-29T20:43:26.575Z,8.60
2018-01-29T20:45:54.075Z,8.60
2018-01-29T20:48:22.577Z,8.60
2018-01-29T20:50:50.116Z,8.60
2018-01-29T20:53:17.903Z,8.60
2018-01-29T20:55:45.496Z,8.70
2018-01-29T20:58:13.017Z,8.80
2018-01-29T21:00:40.624Z,8.80
2018-01-29T21:03:08.134Z,8.80
2018-01-29T21:05:36.445Z,8.70
2018-01-29T21:08:03.937Z,8.70
2018-01-29T21:10:31.428Z,8.70
2018-01-29T21:12:58.948Z,8.70
2018-01-29T21:15:26.555Z,8.60
2018-01-29T21:17:54.003Z,8.60
2018-01-29T21:20:22.334Z,8.60
2018-01-29T21:22:49.897Z,8.60
2018-01-29T21:25:17.452Z,8.70
2018-01-29T21:27:44.989Z,8.60
2018-01-29T21:30:12.583Z,8.60
2018-01-29T21:32:41.002Z,8.50
2018-01-29T21:35:08.585Z,8.60
2018-01-29T21:37:37.090Z,8.60
2018-01-29T21:40:04.680Z,8.70
2018-01-29T21:42:32.249Z,8.70
2018-01-29T21:45:00.531Z,8.70
2018-01-29T21:47:28.858Z,8.70
2018-01-29T21:49:56.424Z,8.70
2018-01-29T21:52:24.087Z,8.60
2018-01-29T21:54:52.319Z,8.60
2018-01-29T21:57:19.906Z,8.60
2018-01-29T21:59:47.461Z,8.50
2018-01-29T22:02:15.048Z,8.50
2018-01-29T22:04:42.646Z,8.50
2018-01-29T22:07:11.202Z,8.40
2018-01-29T22:09:38.759Z,8.40
2018-01-29T22:12:06.291Z,8.40
2018-01-29T22:14:34.100Z,8.40
2018-01-29T22:17:01.597Z,8.30
2018-01-29T22:19:29.205Z,8.40
2018-01-29T22:21:56.731Z,8.50
2018-01-29T22:24:24.245Z,8.50
2018-01-29T22:26:51.790Z,8.60
2018-01-29T22:29:20.099Z,8.70
2018-01-29T22:31:47.656Z,8.70
2018-01-29T22:34:15.201Z,8.70
2018-01-29T22:36:43.518Z,8.50
2018-01-29T22:39:11.029Z,8.50
2018-01-29T22:41:38.571Z,8.50
2018-01-29T22:44:06.101Z,8.60
2018-01-29T22:46:33.652Z,8.60
2018-01-29T22:49:01.353Z,8.60
2018-01-29T22:51:28.922Z,8.60
2018-01-29T22:53:56.497Z,8.50
2018-01-29T22:56:24.258Z,8.50
2018-01-29T22:58:51.811Z,8.60
2018-01-29T23:01:19.268Z,8.60
2018-01-29T23:03:46.755Z,8.70
2018-01-29T23:06:14.344Z,8.70
2018-01-29T23:08:41.979Z,8.70
2018-01-29T23:11:09.508Z,8.60
2018-01-29T23:13:37.151Z,8.60
2018-01-29T23:16:04.693Z,8.60
2018-01-29T23:18:32.216Z,8.60
2018-01-29T23:20:59.931Z,8.50
2018-01-29T23:23:27.471Z,8.50
2018-01-29T23:25:55.254Z,8.40
2018-01-29T23:28:23.760Z,8.20
2018-01-29T23:30:52.142Z,8.30
2018-01-29T23:33:19.730Z,8.20
2018-01-29T23:35:47.459Z,8.30
2018-01-29T23:38:15.034Z,8.40
2018-01-29T23:40:43.344Z,8.40
2018-01-29T23:43:10.919Z,8.40
2018-01-29T23:45:38.478Z,8.30
2018-01-29T23:48:06.068Z,8.40
2018-01-29T23:50:33.653Z,8.40
2018-01-29T23:53:01.195Z,8.30
2018-01-29T23:55:28.665Z,8.30
2018-01-29T23:57:56.985Z,8.30
